Time,TemperatureF,DewpointF,PressureIn,WindDirection,WindDirectionDegrees,WindSpeedMPH,WindSpeedGustMPH,Humidity,HourlyPrecipIn,Conditions,Clouds,dailyrainin,SoftwareType,DateUTC
2013-08-29 00:08:00,77.2,74.0,30.04,ESE,113,0.0,0.0,88,0.00,,,0.00,weatherlink.com 1.10,2013-08-29 04:08:00,
2013-08-29 00:28:00,77.1,74.0,30.03,ESE,113,0.0,0.0,89,0.00,,,0.00,weatherlink.com 1.10,2013-08-29 04:28:00,
2013-08-29 00:42:00,76.9,74.0,30.03,ESE,113,0.0,0.0,90,0.00,,,0.00,weatherlink.com 1.10,2013-08-29 04:42:00,
2013-08-29 00:58:00,76.6,74.0,30.03,ESE,113,0.0,0.0,90,0.00,,,0.00,weatherlink.com 1.10,2013-08-29 04:58:00,
2013-08-29 01:14:00,76.5,74.0,30.03,ESE,113,0.0,0.0,91,0.00,,,0.00,weatherlink.com 1.10,2013-08-29 05:14:00,
2013-08-29 01:28:00,76.3,74.0,30.03,ESE,113,0.0,0.0,91,0.00,,,0.00,weatherlink.com 1.10,2013-08-29 05:28:00,
2013-08-29 01:45:00,76.0,73.0,30.02,ESE,113,0.0,0.0,91,0.00,,,0.00,weatherlink.com 1.10,2013-08-29 05:45:00,
2013-08-29 02:00:00,75.8,73.0,30.02,ESE,113,0.0,1.0,92,0.00,,,0.00,weatherlink.com 1.10,2013-08-29 06:00:00,
2013-08-29 02:16:00,75.7,74.0,30.02,ESE,113,0.0,1.0,93,0.00,,,0.00,weatherlink.com 1.10,2013-08-29 06:16:00,
2013-08-29 02:34:00,75.5,73.0,30.02,ESE,113,1.0,2.0,92,0.00,,,0.00,weatherlink.com 1.10,2013-08-29 06:34:00,
2013-08-29 02:49:00,75.4,73.0,30.02,ESE,113,0.0,1.0,92,0.00,,,0.00,weatherlink.com 1.10,2013-08-29 06:49:00,
2013-08-29 03:04:00,75.6,73.0,30.02,ESE,113,0.0,2.0,92,0.00,,,0.00,weatherlink.com 1.10,2013-08-29 07:04:00,
2013-08-29 03:25:00,76.0,73.0,30.02,ESE,113,0.0,2.0,91,0.00,,,0.00,weatherlink.com 1.10,2013-08-29 07:25:00,
2013-08-29 03:36:00,76.1,73.0,30.02,ESE,116,0.0,3.0,91,0.00,,,0.00,weatherlink.com 1.10,2013-08-29 07:36:00,
2013-08-29 03:53:00,76.2,73.0,30.02,ESE,116,0.0,1.0,90,0.00,,,0.00,weatherlink.com 1.10,2013-08-29 07:53:00,
2013-08-29 04:08:00,76.3,73.0,30.01,ESE,116,0.0,2.0,90,0.00,,,0.00,weatherlink.com 1.10,2013-08-29 08:08:00,
2013-08-29 04:26:00,76.2,73.0,30.01,ESE,116,0.0,0.0,89,0.00,,,0.00,weatherlink.com 1.10,2013-08-29 08:26:00,
2013-08-29 04:41:00,76.0,73.0,30.00,ESE,116,0.0,0.0,90,0.00,,,0.00,weatherlink.com 1.10,2013-08-29 08:41:00,
2013-08-29 04:57:00,75.5,73.0,30.00,ESE,116,0.0,0.0,90,0.00,,,0.00,weatherlink.com 1.10,2013-08-29 08:57:00,
2013-08-29 05:12:00,75.2,72.0,30.00,ESE,116,0.0,0.0,90,0.00,,,0.00,weatherlink.com 1.10,2013-08-29 09:12:00,
2013-08-29 05:29:00,74.8,72.0,30.00,ESE,116,0.0,0.0,91,0.00,,,0.00,weatherlink.com 1.10,2013-08-29 09:29:00,
2013-08-29 05:46:00,74.6,72.0,30.00,ESE,116,0.0,1.0,92,0.00,,,0.00,weatherlink.com 1.10,2013-08-29 09:46:00,
2013-08-29 06:00:00,74.3,72.0,30.00,ESE,116,0.0,0.0,92,0.00,,,0.00,weatherlink.com 1.10,2013-08-29 10:00:00,
2013-08-29 06:16:00,74.1,72.0,30.00,ESE,116,0.0,0.0,92,0.00,,,0.00,weatherlink.com 1.10,2013-08-29 10:16:00,
2013-08-29 06:33:00,73.9,72.0,30.00,ESE,116,0.0,0.0,93,0.00,,,0.00,weatherlink.com 1.10,2013-08-29 10:33:00,
2013-08-29 06:48:00,73.7,72.0,30.01,ESE,116,0.0,0.0,93,0.00,,,0.00,weatherlink.com 1.10,2013-08-29 10:48:00,
2013-08-29 07:06:00,73.5,72.0,30.01,ESE,116,0.0,0.0,94,0.00,,,0.00,weatherlink.com 1.10,2013-08-29 11:06:00,
2013-08-29 07:19:00,73.5,72.0,30.01,ESE,116,0.0,0.0,94,0.00,,,0.00,weatherlink.com 1.10,2013-08-29 11:19:00,
2013-08-29 07:37:00,73.4,72.0,30.01,ESE,116,0.0,0.0,94,0.00,,,0.00,weatherlink.com 1.10,2013-08-29 11:37:00,
2013-08-29 07:51:00,73.6,72.0,30.02,ESE,116,0.0,0.0,94,0.00,,,0.00,weatherlink.com 1.10,2013-08-29 11:51:00,
2013-08-29 08:08:00,74.4,73.0,30.02,ESE,116,0.0,0.0,95,0.00,,,0.00,weatherlink.com 1.10,2013-08-29 12:08:00,
2013-08-29 08:23:00,75.7,74.0,30.02,ESE,116,0.0,0.0,95,0.00,,,0.00,weatherlink.com 1.10,2013-08-29 12:23:00,
2013-08-29 08:39:00,77.7,75.0,30.02,ESE,116,0.0,1.0,92,0.00,,,0.00,weatherlink.com 1.10,2013-08-29 12:39:00,
2013-08-29 08:56:00,80.3,75.0,30.02,ESE,112,0.0,3.0,84,0.00,,,0.00,weatherlink.com 1.10,2013-08-29 12:56:00,
2013-08-29 09:11:00,82.3,75.0,30.03,ENE,76,0.0,2.0,78,0.00,,,0.00,weatherlink.com 1.10,2013-08-29 13:11:00,
2013-08-29 09:28:00,83.6,75.0,30.03,ESE,114,0.0,3.0,74,0.00,,,0.00,weatherlink.com 1.10,2013-08-29 13:28:00,
2013-08-29 09:45:00,84.8,75.0,30.03,SSE,167,0.0,3.0,72,0.00,,,0.00,weatherlink.com 1.10,2013-08-29 13:45:00,
2013-08-29 09:59:00,85.6,74.0,30.03,WNW,292,1.0,5.0,68,0.00,,,0.00,weatherlink.com 1.10,2013-08-29 13:59:00,
2013-08-29 10:16:00,86.5,75.0,30.03,ENE,75,1.0,5.0,69,0.00,,,0.00,weatherlink.com 1.10,2013-08-29 14:16:00,
2013-08-29 10:32:00,88.2,75.0,30.03,SSW,208,2.0,4.0,66,0.00,,,0.00,weatherlink.com 1.10,2013-08-29 14:32:00,
2013-08-29 10:48:00,88.3,76.0,30.04,NW,321,1.0,4.0,66,0.00,,,0.00,weatherlink.com 1.10,2013-08-29 14:48:00,
2013-08-29 11:07:00,88.8,76.0,30.03,NNE,28,4.0,5.0,66,0.00,,,0.00,weatherlink.com 1.10,2013-08-29 15:07:00,
2013-08-29 11:19:00,89.2,76.0,30.04,NNW,335,0.0,7.0,65,0.00,,,0.00,weatherlink.com 1.10,2013-08-29 15:19:00,
2013-08-29 11:36:00,89.5,77.0,30.03,North,351,2.0,6.0,67,0.00,,,0.00,weatherlink.com 1.10,2013-08-29 15:36:00,
2013-08-29 11:55:00,89.3,76.0,30.03,NE,44,0.0,8.0,64,0.00,,,0.00,weatherlink.com 1.10,2013-08-29 15:55:00,
2013-08-29 12:07:00,89.9,76.0,30.03,NNW,332,2.0,7.0,64,0.00,,,0.00,weatherlink.com 1.10,2013-08-29 16:07:00,
2013-08-29 12:23:00,91.0,76.0,30.03,West,281,7.0,7.0,62,0.00,,,0.00,weatherlink.com 1.10,2013-08-29 16:23:00,
2013-08-29 12:40:00,90.6,76.0,30.02,North,5,3.0,7.0,62,0.00,,,0.00,weatherlink.com 1.10,2013-08-29 16:40:00,
2013-08-29 12:55:00,91.1,77.0,30.03,WNW,286,1.0,8.0,64,0.00,,,0.00,weatherlink.com 1.10,2013-08-29 16:55:00,
2013-08-29 13:12:00,91.7,76.0,30.02,WNW,291,2.0,8.0,61,0.00,,,0.00,weatherlink.com 1.10,2013-08-29 17:12:00,
2013-08-29 13:28:00,91.4,78.0,30.02,WNW,300,1.0,9.0,64,0.00,,,0.00,weatherlink.com 1.10,2013-08-29 17:28:00,
2013-08-29 13:43:00,91.2,76.0,30.02,NNW,333,4.0,10.0,62,0.00,,,0.00,weatherlink.com 1.10,2013-08-29 17:43:00,
2013-08-29 13:59:00,91.9,78.0,30.02,NE,34,5.0,7.0,64,0.00,,,0.00,weatherlink.com 1.10,2013-08-29 17:59:00,
2013-08-29 14:15:00,91.8,77.0,30.01,WSW,255,1.0,9.0,63,0.00,,,0.00,weatherlink.com 1.10,2013-08-29 18:15:00,
2013-08-29 14:32:00,91.7,77.0,30.00,ENE,76,3.0,8.0,62,0.00,,,0.00,weatherlink.com 1.10,2013-08-29 18:32:00,
2013-08-29 14:47:00,92.3,76.0,30.00,NNE,29,4.0,9.0,59,0.00,,,0.00,weatherlink.com 1.10,2013-08-29 18:47:00,
2013-08-29 15:03:00,91.4,76.0,29.99,North,355,7.0,9.0,60,0.00,,,0.00,weatherlink.com 1.10,2013-08-29 19:03:00,
2013-08-29 15:19:00,91.7,76.0,29.98,North,360,4.0,9.0,60,0.00,,,0.00,weatherlink.com 1.10,2013-08-29 19:19:00,
2013-08-29 15:35:00,91.4,76.0,29.97,North,355,2.0,10.0,60,0.00,,,0.00,weatherlink.com 1.10,2013-08-29 19:35:00,
2013-08-29 15:51:00,91.8,77.0,29.97,WNW,296,5.0,10.0,62,0.00,,,0.00,weatherlink.com 1.10,2013-08-29 19:51:00,
2013-08-29 16:07:00,90.7,76.0,29.96,WNW,297,2.0,9.0,62,0.00,,,0.00,weatherlink.com 1.10,2013-08-29 20:07:00,
2013-08-29 16:24:00,91.3,77.0,29.96,NNW,348,0.0,10.0,63,0.00,,,0.00,weatherlink.com 1.10,2013-08-29 20:24:00,
2013-08-29 16:39:00,91.2,76.0,29.96,WSW,243,1.0,10.0,62,0.00,,,0.00,weatherlink.com 1.10,2013-08-29 20:39:00,
2013-08-29 16:56:00,91.0,76.0,29.96,West,267,0.0,10.0,62,0.00,,,0.00,weatherlink.com 1.10,2013-08-29 20:56:00,
2013-08-29 17:11:00,90.9,76.0,29.96,ESE,115,0.0,7.0,62,0.00,,,0.00,weatherlink.com 1.10,2013-08-29 21:11:00,
2013-08-29 17:30:00,91.4,77.0,29.95,WSW,245,0.0,7.0,63,0.00,,,0.00,weatherlink.com 1.10,2013-08-29 21:30:00,
2013-08-29 17:44:00,90.1,76.0,29.95,West,277,5.0,7.0,64,0.00,,,0.00,weatherlink.com 1.10,2013-08-29 21:44:00,
2013-08-29 17:59:00,89.7,78.0,29.95,SW,230,5.0,6.0,68,0.00,,,0.00,weatherlink.com 1.10,2013-08-29 21:59:00,
2013-08-29 18:15:00,89.0,78.0,29.95,NW,326,3.0,6.0,69,0.00,,,0.00,weatherlink.com 1.10,2013-08-29 22:15:00,
2013-08-29 18:32:00,88.0,77.0,29.95,NE,40,1.0,6.0,69,0.00,,,0.00,weatherlink.com 1.10,2013-08-29 22:32:00,
2013-08-29 18:47:00,87.4,77.0,29.95,West,263,3.0,8.0,70,0.00,,,0.00,weatherlink.com 1.10,2013-08-29 22:47:00,
2013-08-29 19:03:00,86.5,75.0,29.95,North,5,1.0,10.0,69,0.00,,,0.00,weatherlink.com 1.10,2013-08-29 23:03:00,
2013-08-29 19:19:00,85.9,75.0,29.95,WNW,295,0.0,6.0,70,0.00,,,0.00,weatherlink.com 1.10,2013-08-29 23:19:00,
2013-08-29 19:35:00,85.3,75.0,29.95,WNW,294,4.0,6.0,71,0.00,,,0.00,weatherlink.com 1.10,2013-08-29 23:35:00,
2013-08-29 19:50:00,84.6,74.0,29.95,NW,316,1.0,7.0,71,0.00,,,0.00,weatherlink.com 1.10,2013-08-29 23:50:00,
2013-08-29 20:09:00,84.1,75.0,29.96,NW,325,2.0,8.0,73,0.00,,,0.00,weatherlink.com 1.10,2013-08-30 00:09:00,
2013-08-29 20:23:00,83.7,74.0,29.96,West,271,0.0,4.0,73,0.00,,,0.00,weatherlink.com 1.10,2013-08-30 00:23:00,
2013-08-29 20:39:00,83.6,75.0,29.96,West,262,0.0,5.0,74,0.00,,,0.00,weatherlink.com 1.10,2013-08-30 00:39:00,
2013-08-29 20:54:00,83.4,75.0,29.97,WNW,290,0.0,7.0,75,0.00,,,0.00,weatherlink.com 1.10,2013-08-30 00:54:00,
2013-08-29 21:11:00,83.1,75.0,29.97,NW,311,1.0,4.0,76,0.00,,,0.00,weatherlink.com 1.10,2013-08-30 01:11:00,
2013-08-29 21:27:00,82.9,74.0,29.96,WNW,302,1.0,5.0,75,0.00,,,0.00,weatherlink.com 1.10,2013-08-30 01:27:00,
2013-08-29 21:43:00,82.7,75.0,29.96,North,9,0.0,4.0,77,0.00,,,0.00,weatherlink.com 1.10,2013-08-30 01:43:00,
2013-08-29 21:58:00,82.5,75.0,29.97,NNW,339,0.0,5.0,77,0.00,,,0.00,weatherlink.com 1.10,2013-08-30 01:58:00,
2013-08-29 22:14:00,82.4,75.0,29.97,NW,319,0.0,3.0,77,0.00,,,0.00,weatherlink.com 1.10,2013-08-30 02:14:00,
2013-08-29 22:31:00,82.4,75.0,29.98,NNE,15,0.0,3.0,78,0.00,,,0.00,weatherlink.com 1.10,2013-08-30 02:31:00,
2013-08-29 22:45:00,82.3,75.0,29.98,West,281,0.0,2.0,79,0.00,,,0.00,weatherlink.com 1.10,2013-08-30 02:45:00,
2013-08-29 23:02:00,82.1,75.0,29.98,NW,317,0.0,3.0,80,0.00,,,0.00,weatherlink.com 1.10,2013-08-30 03:02:00,
2013-08-29 23:17:00,81.9,76.0,29.98,WNW,287,0.0,1.0,81,0.00,,,0.00,weatherlink.com 1.10,2013-08-30 03:17:00,
2013-08-29 23:33:00,81.7,75.0,29.98,WNW,284,0.0,2.0,81,0.00,,,0.00,weatherlink.com 1.10,2013-08-30 03:33:00,
2013-08-29 23:50:00,81.5,75.0,29.99,WNW,284,0.0,2.0,81,0.00,,,0.00,weatherlink.com 1.10,2013-08-30 03:50:00,